Time;durP1;ratioP1;P1;durP2;ratioP2;P2;SDS_P1;SDS_P2;PMS_P1;PMS_P2;Temp;Humidity;BMP_temperature;BMP_pressure;BME280_temperature;BME280_humidity;BME280_pressure;Samples;Min_cycle;Max_cycle;Signal;HPM_P1;HPM_P2
2021/09/06 00:00:09;;;;;;;0.10;0.10;;;14.90;99.90;;;;;;4978224;28;20456;-73
2021/09/06 00:02:34;;;;;;;0.40;0.40;;;15.00;99.90;;;;;;5011889;28;20030;-73
2021/09/06 00:05:00;;;;;;;0.17;0.17;;;15.00;99.90;;;;;;5012005;28;20026;-73
2021/09/06 00:07:26;;;;;;;0.20;0.20;;;14.90;99.90;;;;;;5011946;28;20473;-73
2021/09/06 00:09:59;;;;;;;0.20;0.20;;;15.00;99.90;;;;;;5011922;28;20520;-73
2021/09/06 00:12:25;;;;;;;0.47;0.47;;;15.10;99.90;;;;;;5015089;28;20485;-73
2021/09/06 00:14:50;;;;;;;0.15;0.15;;;15.30;99.90;;;;;;4981758;28;20040;-73
2021/09/06 00:17:16;;;;;;;0.17;0.17;;;15.30;99.90;;;;;;5015619;28;20022;-73
2021/09/06 00:19:42;;;;;;;0.20;0.20;;;15.50;99.90;;;;;;5015496;28;20136;-73
2021/09/06 00:22:07;;;;;;;0.20;0.20;;;15.60;99.90;;;;;;5015623;28;20466;-73
2021/09/06 00:24:35;;;;;;;0.10;0.10;;;15.50;99.90;;;;;;5015523;28;20156;-73
2021/09/06 00:27:01;;;;;;;0.40;0.40;;;15.20;99.90;;;;;;4981539;28;20076;-74
2021/09/06 00:29:27;;;;;;;0.10;0.10;;;15.10;99.90;;;;;;5015230;28;20030;-73
2021/09/06 00:31:52;;;;;;;0.20;0.20;;;15.10;99.90;;;;;;5015658;28;20032;-73
2021/09/06 00:34:18;;;;;;;0.17;0.17;;;15.10;99.90;;;;;;5015278;28;20041;-74
2021/09/06 00:36:44;;;;;;;0.10;0.10;;;15.00;99.90;;;;;;4997664;28;20018;-73
2021/09/06 00:39:09;;;;;;;0.10;0.10;;;15.00;99.90;;;;;;5015195;28;20022;-73
2021/09/06 00:41:35;;;;;;;0.10;0.10;;;15.40;99.90;;;;;;5015184;28;20022;-73
2021/09/06 00:44:02;;;;;;;0.10;0.10;;;15.30;99.90;;;;;;5015171;28;20081;-73
2021/09/06 00:46:28;;;;;;;0.15;0.15;;;15.30;99.90;;;;;;4997487;28;20379;-73
2021/09/06 00:48:54;;;;;;;0.20;0.20;;;15.40;99.90;;;;;;5014955;28;20113;-73
2021/09/06 00:51:20;;;;;;;0.10;0.10;;;15.30;99.90;;;;;;5014966;28;20084;-73
2021/09/06 00:53:46;;;;;;;0.17;0.17;;;15.40;99.90;;;;;;4981200;28;20603;-73
2021/09/06 00:56:12;;;;;;;0.20;0.20;;;15.40;99.90;;;;;;5014938;28;20022;-73
2021/09/06 00:58:38;;;;;;;0.10;0.10;;;15.30;99.90;;;;;;4997221;28;20106;-73
2021/09/06 01:01:03;;;;;;;0.15;0.15;;;15.30;99.90;;;;;;5014849;28;20053;-73
2021/09/06 01:03:29;;;;;;;0.10;0.10;;;15.20;99.90;;;;;;5014789;28;20057;-73
2021/09/06 01:05:55;;;;;;;0.15;0.15;;;15.10;99.90;;;;;;5014763;28;20077;-73
2021/09/06 01:08:20;;;;;;;0.10;0.10;;;15.20;99.90;;;;;;4996930;28;20194;-73
2021/09/06 01:10:46;;;;;;;0.20;0.20;;;15.10;99.90;;;;;;4980815;28;20451;-73
2021/09/06 01:13:12;;;;;;;0.30;0.30;;;15.00;99.90;;;;;;4996953;28;20064;-73
2021/09/06 01:15:38;;;;;;;0.10;0.10;;;14.90;99.90;;;;;;4997023;28;20108;-73
2021/09/06 01:18:04;;;;;;;0.22;0.22;;;14.90;99.90;;;;;;4996705;28;20087;-73
2021/09/06 01:20:30;;;;;;;0.15;0.15;;;14.80;99.90;;;;;;5014466;28;20022;-73
2021/09/06 01:22:56;;;;;;;0.10;0.10;;;14.80;99.90;;;;;;4996163;28;20056;-73
2021/09/06 01:25:21;;;;;;;0.10;0.10;;;14.80;99.90;;;;;;4997017;28;20033;-73
2021/09/06 01:27:47;;;;;;;0.10;0.10;;;14.80;99.90;;;;;;5014183;28;20091;-73
2021/09/06 01:30:14;;;;;;;1.40;1.40;;;14.80;99.90;;;;;;5014255;28;20045;-73
2021/09/06 01:32:40;;;;;;;0.30;0.30;;;14.80;99.90;;;;;;5014152;28;20109;-73
2021/09/06 01:35:06;;;;;;;0.20;0.20;;;14.80;99.90;;;;;;4980436;28;20022;-73
2021/09/06 01:37:32;;;;;;;0.10;0.10;;;14.70;99.90;;;;;;4996714;28;20046;-73
2021/09/06 01:39:59;;;;;;;0.52;0.52;;;14.70;99.90;;;;;;5014023;28;20026;-73
2021/09/06 01:42:25;;;;;;;0.10;0.10;;;14.80;99.90;;;;;;5014018;28;20018;-73
2021/09/06 01:44:51;;;;;;;0.10;0.10;;;14.80;99.90;;;;;;5013956;28;20018;-73
2021/09/06 01:47:17;;;;;;;0.10;0.10;;;14.80;99.90;;;;;;5013890;28;20496;-73
2021/09/06 01:49:42;;;;;;;0.55;0.47;;;14.70;99.90;;;;;;5013810;28;20166;-73
2021/09/06 01:52:08;;;;;;;0.32;0.32;;;14.60;99.90;;;;;;4996138;28;20128;-73
2021/09/06 01:54:34;;;;;;;2.70;2.50;;;14.50;99.90;;;;;;4979895;28;20105;-73
2021/09/06 01:57:00;;;;;;;0.10;0.10;;;14.50;99.90;;;;;;5013750;28;20492;-73
2021/09/06 01:59:25;;;;;;;0.10;0.10;;;14.60;99.90;;;;;;5013700;28;20125;-73
2021/09/06 02:01:51;;;;;;;0.20;0.20;;;14.50;99.90;;;;;;4996024;28;20022;-73
2021/09/06 02:04:18;;;;;;;0.10;0.10;;;14.60;99.90;;;;;;4979891;28;20107;-73
2021/09/06 02:06:43;;;;;;;0.10;0.10;;;14.70;99.90;;;;;;4996050;28;20033;-73
2021/09/06 02:09:09;;;;;;;18.15;16.27;;;14.80;99.90;;;;;;5013454;28;20473;-73
2021/09/06 02:11:35;;;;;;;0.10;0.10;;;14.80;99.90;;;;;;5013456;28;20034;-73
2021/09/06 02:14:00;;;;;;;0.10;0.10;;;14.80;99.90;;;;;;4979575;28;20030;-73
2021/09/06 02:16:26;;;;;;;0.17;0.17;;;14.90;99.90;;;;;;4995880;28;20390;-73
2021/09/06 02:18:53;;;;;;;0.10;0.10;;;14.80;99.90;;;;;;5013196;28;20018;-73
2021/09/06 02:21:18;;;;;;;0.10;0.10;;;14.60;99.90;;;;;;4995760;28;20456;-73
2021/09/06 02:23:44;;;;;;;0.20;0.20;;;14.50;99.90;;;;;;4979539;28;20069;-73
2021/09/06 02:26:10;;;;;;;1.55;1.10;;;14.40;99.90;;;;;;4995603;28;20478;-73
2021/09/06 02:28:36;;;;;;;0.15;0.15;;;14.20;99.90;;;;;;5013057;28;20044;-73
2021/09/06 02:31:01;;;;;;;0.20;0.20;;;14.30;99.90;;;;;;4979340;28;20540;-73
2021/09/06 02:33:27;;;;;;;0.10;0.10;;;14.40;99.90;;;;;;4979162;28;20165;-73
2021/09/06 02:35:53;;;;;;;0.20;0.20;;;14.50;99.90;;;;;;5013417;28;20076;-73
2021/09/06 02:38:18;;;;;;;0.20;0.20;;;14.60;99.90;;;;;;4995326;28;20515;-73
2021/09/06 02:40:44;;;;;;;0.13;0.13;;;14.50;99.90;;;;;;5012971;28;20097;-73
2021/09/06 02:43:10;;;;;;;0.35;0.35;;;14.40;99.90;;;;;;5013049;28;20092;-73
2021/09/06 02:45:35;;;;;;;0.52;0.52;;;14.30;99.90;;;;;;5012868;28;20061;-73
2021/09/06 02:48:01;;;;;;;0.85;0.85;;;14.10;99.90;;;;;;4995263;28;20101;-73
2021/09/06 02:50:27;;;;;;;1.38;0.50;;;14.00;99.90;;;;;;5012871;28;20068;-73
2021/09/06 02:52:53;;;;;;;0.30;0.30;;;13.80;99.90;;;;;;5012841;28;20033;-73
2021/09/06 02:55:19;;;;;;;0.10;0.10;;;13.70;99.90;;;;;;5012775;28;20083;-73
2021/09/06 02:57:45;;;;;;;0.25;0.25;;;13.60;99.90;;;;;;4995137;28;20025;-73
2021/09/06 03:00:12;;;;;;;0.20;0.20;;;13.50;99.90;;;;;;4994988;28;20108;-74
2021/09/06 03:02:38;;;;;;;0.20;0.20;;;13.50;99.90;;;;;;5012659;28;20098;-73
2021/09/06 03:05:06;;;;;;;0.20;0.20;;;13.50;99.90;;;;;;4995117;28;20117;-73
2021/09/06 03:07:32;;;;;;;0.20;0.20;;;13.60;99.90;;;;;;5012779;28;20581;-73
2021/09/06 03:09:58;;;;;;;0.30;0.30;;;13.60;99.90;;;;;;4994935;28;20026;-73
2021/09/06 03:12:23;;;;;;;0.20;0.20;;;13.60;99.90;;;;;;5012443;28;20056;-73
2021/09/06 03:14:49;;;;;;;1.35;1.25;;;13.70;99.90;;;;;;4994652;28;20045;-73
2021/09/06 03:17:15;;;;;;;0.10;0.10;;;13.60;99.90;;;;;;5012409;28;20377;-73
2021/09/06 03:19:41;;;;;;;0.50;0.50;;;13.70;99.90;;;;;;4978519;28;20022;-73
2021/09/06 03:22:07;;;;;;;0.20;0.20;;;13.70;99.90;;;;;;5012405;28;20026;-73
2021/09/06 03:24:33;;;;;;;0.20;0.20;;;13.70;99.90;;;;;;5012327;28;20026;-73
2021/09/06 03:26:59;;;;;;;0.20;0.20;;;13.70;99.90;;;;;;5012365;28;20030;-73
2021/09/06 03:29:24;;;;;;;0.10;0.10;;;13.80;99.90;;;;;;4994562;28;20120;-73
2021/09/06 03:31:50;;;;;;;0.22;0.22;;;13.70;99.90;;;;;;5012195;28;20026;-73
2021/09/06 03:34:16;;;;;;;0.20;0.20;;;13.60;99.90;;;;;;4994622;28;20025;-73
2021/09/06 03:36:41;;;;;;;0.20;0.20;;;13.50;99.90;;;;;;4978321;28;20030;-73
2021/09/06 03:39:07;;;;;;;3.85;0.93;;;13.40;99.90;;;;;;5012101;28;20108;-73
2021/09/06 03:41:33;;;;;;;0.95;0.95;;;13.10;99.90;;;;;;5012161;28;20056;-73
2021/09/06 03:43:59;;;;;;;0.20;0.20;;;12.80;99.90;;;;;;4994580;28;20030;-73
2021/09/06 03:46:25;;;;;;;0.65;0.65;;;12.80;99.90;;;;;;4996313;28;20026;-73
2021/09/06 03:48:50;;;;;;;0.30;0.30;;;12.90;99.90;;;;;;4998466;28;20121;-73
2021/09/06 03:51:16;;;;;;;0.98;0.93;;;13.10;99.90;;;;;;4998435;28;20511;-73
2021/09/06 03:53:42;;;;;;;0.30;0.30;;;13.00;99.90;;;;;;4998551;28;20045;-73
2021/09/06 03:56:07;;;;;;;0.20;0.20;;;12.90;99.90;;;;;;5016025;28;20026;-74
2021/09/06 03:58:33;;;;;;;0.30;0.30;;;12.80;99.90;;;;;;5015891;28;20018;-73
2021/09/06 04:00:59;;;;;;;0.35;0.35;;;12.80;99.90;;;;;;5015992;28;20030;-73
2021/09/06 04:03:25;;;;;;;0.20;0.20;;;12.70;99.90;;;;;;4998364;28;20037;-73
2021/09/06 04:05:50;;;;;;;0.20;0.20;;;12.80;99.90;;;;;;4998445;28;20026;-73
2021/09/06 04:08:16;;;;;;;0.15;0.15;;;12.80;99.90;;;;;;4998080;28;20092;-73
2021/09/06 04:10:42;;;;;;;0.75;0.75;;;12.80;99.90;;;;;;4998165;28;20512;-73
2021/09/06 04:13:08;;;;;;;0.13;0.13;;;12.90;99.90;;;;;;4981747;28;20072;-73
2021/09/06 04:15:33;;;;;;;0.13;0.13;;;12.70;99.90;;;;;;5015749;28;20077;-73
2021/09/06 04:17:59;;;;;;;0.10;0.10;;;12.70;99.90;;;;;;4997816;28;20022;-73
2021/09/06 04:20:25;;;;;;;0.28;0.28;;;12.80;99.90;;;;;;5015462;28;20018;-74
2021/09/06 04:22:51;;;;;;;0.10;0.10;;;12.80;99.90;;;;;;5015550;28;20022;-73
2021/09/06 04:25:17;;;;;;;0.20;0.20;;;12.80;99.90;;;;;;5015486;28;20030;-73
2021/09/06 04:27:42;;;;;;;0.10;0.10;;;12.90;99.90;;;;;;5015493;28;20049;-73
2021/09/06 04:30:09;;;;;;;0.20;0.20;;;12.80;99.90;;;;;;4997891;28;20080;-73
2021/09/06 04:32:35;;;;;;;0.30;0.30;;;12.80;99.90;;;;;;4997664;28;20317;-73
2021/09/06 04:35:00;;;;;;;0.10;0.10;;;12.90;99.90;;;;;;5015213;28;20026;-73
2021/09/06 04:37:26;;;;;;;0.30;0.30;;;12.90;99.90;;;;;;4997603;28;20022;-73
2021/09/06 04:39:52;;;;;;;0.10;0.10;;;12.90;99.90;;;;;;5015179;28;20029;-73
2021/09/06 04:42:18;;;;;;;0.30;0.30;;;12.80;99.90;;;;;;4997428;28;20022;-73
2021/09/06 04:44:44;;;;;;;0.32;0.32;;;12.80;99.90;;;;;;4997405;28;20081;-73
2021/09/06 04:47:10;;;;;;;0.20;0.20;;;12.90;99.90;;;;;;5014851;28;20032;-73
2021/09/06 04:49:36;;;;;;;0.32;0.32;;;12.90;99.90;;;;;;4981105;28;20029;-73
2021/09/06 04:52:02;;;;;;;0.30;0.30;;;12.90;99.90;;;;;;5015258;28;20030;-73
2021/09/06 04:54:28;;;;;;;0.20;0.20;;;12.80;99.90;;;;;;4997736;28;20065;-73
2021/09/06 04:56:54;;;;;;;0.15;0.15;;;12.80;99.90;;;;;;4996706;28;20045;-73
2021/09/06 04:59:21;;;;;;;0.20;0.20;;;12.70;99.90;;;;;;5014120;28;20029;-73
2021/09/06 05:01:48;;;;;;;1.38;1.27;;;12.80;99.90;;;;;;5014821;28;20025;-73
2021/09/06 05:04:14;;;;;;;0.10;0.10;;;12.70;99.90;;;;;;5014810;28;20085;-73
2021/09/06 05:06:40;;;;;;;0.20;0.20;;;12.70;99.90;;;;;;5014737;28;20030;-73
2021/09/06 05:09:05;;;;;;;0.60;0.60;;;12.80;99.90;;;;;;5014363;28;20478;-73
2021/09/06 05:11:32;;;;;;;0.10;0.10;;;12.90;99.90;;;;;;4996706;28;20049;-73
2021/09/06 05:13:58;;;;;;;0.20;0.20;;;12.90;99.90;;;;;;4996759;28;20041;-73
2021/09/06 05:16:24;;;;;;;0.28;0.28;;;12.90;99.90;;;;;;5014578;28;20033;-73
2021/09/06 05:18:50;;;;;;;0.20;0.20;;;12.90;99.90;;;;;;4996739;28;20394;-74
2021/09/06 05:21:16;;;;;;;0.20;0.20;;;13.00;99.90;;;;;;4996651;28;20018;-73
2021/09/06 05:23:42;;;;;;;0.20;0.20;;;13.10;99.90;;;;;;5013873;28;20034;-73
2021/09/06 05:26:07;;;;;;;0.20;0.20;;;13.20;99.90;;;;;;5014030;28;20223;-73
2021/09/06 05:28:33;;;;;;;1.55;1.45;;;13.40;99.90;;;;;;5013361;28;20026;-73
2021/09/06 05:31:02;;;;;;;1.48;0.65;;;13.40;99.90;;;;;;5014007;28;20176;-73
2021/09/06 05:33:28;;;;;;;0.20;0.20;;;13.40;99.90;;;;;;4996105;28;20034;-73
2021/09/06 05:35:54;;;;;;;0.40;0.40;;;13.30;99.90;;;;;;4996133;28;20018;-73
2021/09/06 05:38:20;;;;;;;0.10;0.10;;;13.30;99.90;;;;;;5010925;28;20512;-73
2021/09/06 05:40:46;;;;;;;0.45;0.45;;;13.40;99.90;;;;;;5033535;28;20033;-73
2021/09/06 05:43:11;;;;;;;0.95;0.75;;;13.50;99.90;;;;;;5012121;28;20030;-73
2021/09/06 05:45:37;;;;;;;0.45;0.45;;;13.40;99.90;;;;;;5012321;28;20432;-73
2021/09/06 05:48:04;;;;;;;1.10;1.00;;;13.40;99.90;;;;;;5006149;28;20029;-73
2021/09/06 05:50:30;;;;;;;0.73;0.73;;;13.50;99.90;;;;;;5013467;28;20026;-73
2021/09/06 05:52:55;;;;;;;0.17;0.17;;;13.70;99.90;;;;;;5013045;28;20101;-73
2021/09/06 05:55:21;;;;;;;2.85;2.70;;;13.80;99.90;;;;;;4995828;28;20022;-73
2021/09/06 05:57:47;;;;;;;0.80;0.73;;;13.90;99.90;;;;;;5012928;28;20427;-73
2021/09/06 06:00:13;;;;;;;0.28;0.28;;;13.90;99.90;;;;;;4995737;28;20022;-73
2021/09/06 06:02:39;;;;;;;0.80;0.80;;;13.90;99.90;;;;;;5013306;28;20105;-73
2021/09/06 06:05:05;;;;;;;1.75;0.85;;;14.00;99.90;;;;;;4995609;28;20125;-73
2021/09/06 06:07:31;;;;;;;4.25;0.43;;;14.00;99.90;;;;;;5000070;28;20377;-73
2021/09/06 06:09:57;;;;;;;0.65;0.65;;;13.90;99.90;;;;;;5005596;28;20022;-73
2021/09/06 06:12:26;;;;;;;2.45;1.17;;;13.90;99.90;;;;;;4995178;28;20025;-73
2021/09/06 06:14:52;;;;;;;0.10;0.10;;;14.00;99.90;;;;;;4995499;28;20025;-73
2021/09/06 06:17:18;;;;;;;9.20;7.50;;;14.10;99.90;;;;;;4995279;28;20063;-73
2021/09/06 06:19:45;;;;;;;0.75;0.75;;;14.30;99.90;;;;;;4979037;28;20054;-74
2021/09/06 06:22:11;;;;;;;1.05;0.85;;;14.50;99.90;;;;;;5012901;28;20022;-73
2021/09/06 06:24:37;;;;;;;3.90;2.15;;;14.50;99.90;;;;;;5009549;28;20052;-74
2021/09/06 06:27:03;;;;;;;2.05;0.32;;;14.50;99.90;;;;;;5012737;28;20030;-73
2021/09/06 06:29:29;;;;;;;0.38;0.35;;;14.70;99.90;;;;;;5029057;28;20318;-73
2021/09/06 06:31:56;;;;;;;0.10;0.10;;;14.70;99.90;;;;;;4996156;28;20029;-73
2021/09/06 06:34:21;;;;;;;0.10;0.10;;;14.80;99.90;;;;;;5028128;28;20028;-73
2021/09/06 06:36:47;;;;;;;2.80;0.85;;;15.00;99.90;;;;;;5010192;28;20413;-74
2021/09/06 06:39:13;;;;;;;0.10;0.10;;;15.00;99.90;;;;;;4994658;28;20076;-73
2021/09/06 06:41:39;;;;;;;0.10;0.10;;;15.20;99.90;;;;;;5012668;28;20523;-73
2021/09/06 06:44:05;;;;;;;0.35;0.35;;;15.40;99.90;;;;;;4994645;28;20450;-73
2021/09/06 06:46:31;;;;;;;0.20;0.20;;;15.60;99.90;;;;;;4995080;28;20030;-73
2021/09/06 06:48:57;;;;;;;0.45;0.45;;;15.70;99.90;;;;;;5012090;28;20030;-73
2021/09/06 06:51:23;;;;;;;0.10;0.10;;;15.80;99.90;;;;;;5012400;28;20029;-74
2021/09/06 06:53:49;;;;;;;0.10;0.10;;;16.00;99.90;;;;;;4994522;28;20371;-74
2021/09/06 06:56:14;;;;;;;0.10;0.10;;;16.10;99.90;;;;;;4978673;28;20030;-73
2021/09/06 06:58:40;;;;;;;0.10;0.10;;;16.20;99.90;;;;;;4994448;28;20085;-73
2021/09/06 07:01:06;;;;;;;0.10;0.10;;;16.40;99.90;;;;;;4994595;28;20022;-73
2021/09/06 07:03:32;;;;;;;0.10;0.10;;;16.50;99.90;;;;;;4980591;28;20089;-75
2021/09/06 07:05:57;;;;;;;0.20;0.20;;;16.50;99.90;;;;;;4994422;28;20069;-74
2021/09/06 07:08:23;;;;;;;0.10;0.10;;;16.70;99.90;;;;;;4981819;28;20034;-73
2021/09/06 07:10:49;;;;;;;0.20;0.20;;;16.70;99.90;;;;;;4994467;28;20030;-73
2021/09/06 07:13:15;;;;;;;0.10;0.10;;;16.70;99.90;;;;;;4996419;28;20034;-73
2021/09/06 07:15:41;;;;;;;0.10;0.10;;;16.80;99.90;;;;;;5031971;28;20508;-73
2021/09/06 07:18:08;;;;;;;0.10;0.10;;;16.90;99.90;;;;;;5028722;28;20055;-73
2021/09/06 07:20:35;;;;;;;0.10;0.10;;;17.00;99.90;;;;;;5012535;28;20100;-76
2021/09/06 07:23:00;;;;;;;0.10;0.10;;;17.10;99.90;;;;;;5011619;28;20442;-74
2021/09/06 07:25:26;;;;;;;0.10;0.10;;;17.20;99.90;;;;;;4996855;28;20109;-73
2021/09/06 07:27:52;;;;;;;0.10;0.10;;;17.30;99.90;;;;;;5011559;28;20025;-73
2021/09/06 07:30:18;;;;;;;0.10;0.10;;;17.20;99.90;;;;;;4977638;28;20109;-74
2021/09/06 07:32:45;;;;;;;4.70;2.58;;;17.40;99.90;;;;;;5011469;28;20096;-74
2021/09/06 07:35:12;;;;;;;0.50;0.50;;;17.50;99.90;;;;;;4995713;28;20481;-73
2021/09/06 07:37:38;;;;;;;0.10;0.10;;;17.60;99.90;;;;;;5011512;28;20022;-73
2021/09/06 07:40:05;;;;;;;0.20;0.20;;;17.60;99.90;;;;;;5011397;28;20053;-74
2021/09/06 07:42:31;;;;;;;0.20;0.20;;;17.60;99.90;;;;;;4993961;28;20389;-73
2021/09/06 07:44:57;;;;;;;0.10;0.10;;;17.70;99.90;;;;;;5011653;28;20041;-73
2021/09/06 07:47:22;;;;;;;0.30;0.30;;;17.80;99.90;;;;;;5011283;28;20029;-73
2021/09/06 07:49:48;;;;;;;0.28;0.28;;;17.80;99.90;;;;;;5012685;28;20033;-74
2021/09/06 07:52:14;;;;;;;0.10;0.10;;;17.80;99.90;;;;;;4993626;28;20069;-73
2021/09/06 07:54:40;;;;;;;0.50;0.50;;;17.90;99.90;;;;;;5011204;28;20393;-73
2021/09/06 07:57:06;;;;;;;0.15;0.15;;;18.10;99.90;;;;;;5011257;28;20076;-73
2021/09/06 07:59:32;;;;;;;0.10;0.10;;;18.10;99.90;;;;;;4996887;28;20025;-73
2021/09/06 08:01:58;;;;;;;1.65;1.33;;;18.20;99.90;;;;;;4993822;28;20018;-73
2021/09/06 08:04:26;;;;;;;0.45;0.45;;;18.40;99.90;;;;;;4994836;28;20026;-73
2021/09/06 08:06:51;;;;;;;0.65;0.65;;;18.50;99.90;;;;;;5011324;28;20366;-73
2021/09/06 08:09:17;;;;;;;0.15;0.15;;;18.60;99.90;;;;;;4993622;28;20032;-73
2021/09/06 08:11:46;;;;;;;0.10;0.10;;;18.80;99.90;;;;;;5011249;28;20060;-73
2021/09/06 08:14:12;;;;;;;0.28;0.28;;;19.10;99.90;;;;;;5010737;28;20066;-73
2021/09/06 08:16:38;;;;;;;1.48;0.90;;;19.30;99.90;;;;;;5011324;28;20014;-73
2021/09/06 08:19:04;;;;;;;0.32;0.30;;;19.40;99.90;;;;;;5011585;28;20032;-74
2021/09/06 08:21:31;;;;;;;0.22;0.22;;;19.60;99.90;;;;;;4977381;28;20030;-74
2021/09/06 08:23:58;;;;;;;0.22;0.22;;;19.70;99.90;;;;;;5011269;28;20022;-73
2021/09/06 08:26:27;;;;;;;0.10;0.10;;;19.80;99.90;;;;;;5018388;28;20029;-73
2021/09/06 08:28:53;;;;;;;6.40;1.05;;;19.80;99.90;;;;;;5011259;28;20036;-73
2021/09/06 08:31:19;;;;;;;0.63;0.63;;;19.90;99.90;;;;;;4985946;28;20026;-73
2021/09/06 08:33:45;;;;;;;0.85;0.30;;;20.00;99.90;;;;;;5014612;28;20088;-73
2021/09/06 08:36:11;;;;;;;0.15;0.15;;;20.20;99.90;;;;;;4997578;28;20425;-73
2021/09/06 08:38:39;;;;;;;0.40;0.40;;;20.40;99.90;;;;;;4997037;28;20030;-74
2021/09/06 08:41:06;;;;;;;0.10;0.10;;;20.60;98.90;;;;;;5014839;28;20044;-73
2021/09/06 08:43:32;;;;;;;0.10;0.10;;;20.80;97.30;;;;;;4980770;28;20026;-74
2021/09/06 08:45:59;;;;;;;0.10;0.10;;;20.90;96.40;;;;;;4996849;28;20026;-73
2021/09/06 08:48:25;;;;;;;0.10;0.10;;;21.00;95.60;;;;;;5014220;28;20032;-73
2021/09/06 08:50:52;;;;;;;0.10;0.10;;;21.20;94.30;;;;;;4996624;28;20334;-74
2021/09/06 08:53:18;;;;;;;0.30;0.30;;;21.40;93.50;;;;;;5014286;28;20026;-73
2021/09/06 08:55:43;;;;;;;0.10;0.10;;;21.60;92.80;;;;;;5015622;28;20022;-73
2021/09/06 08:58:09;;;;;;;0.60;0.60;;;21.60;92.70;;;;;;4996330;28;20022;-73
2021/09/06 09:00:35;;;;;;;1.45;1.35;;;21.70;92.20;;;;;;4999728;28;20069;-73
2021/09/06 09:03:01;;;;;;;0.25;0.25;;;22.00;91.50;;;;;;4996534;28;20022;-74
2021/09/06 09:05:27;;;;;;;0.08;0.08;;;22.20;90.60;;;;;;5018865;28;20108;-74
2021/09/06 09:07:57;;;;;;;0.10;0.10;;;22.40;90.10;;;;;;5014008;28;20025;-73
2021/09/06 09:10:31;;;;;;;0.10;0.10;;;22.80;87.10;;;;;;4995851;28;20033;-74
2021/09/06 09:13:05;;;;;;;0.70;0.30;;;23.10;85.00;;;;;;4996281;28;20030;-74
2021/09/06 09:15:31;;;;;;;0.22;0.22;;;23.10;82.10;;;;;;4998334;28;20038;-73
2021/09/06 09:17:57;;;;;;;1.02;1.00;;;23.20;80.20;;;;;;5013624;28;20022;-73
2021/09/06 09:20:38;;;;;;;0.73;0.52;;;23.20;80.30;;;;;;4983788;28;20036;-73
2021/09/06 09:23:05;;;;;;;0.10;0.10;;;23.30;78.90;;;;;;5010800;28;20028;-73
2021/09/06 09:25:31;;;;;;;0.10;0.10;;;23.50;78.70;;;;;;5013624;28;20062;-73
2021/09/06 09:27:57;;;;;;;0.10;0.10;;;23.60;78.00;;;;;;5013465;28;20030;-73
2021/09/06 09:30:33;;;;;;;1.92;0.68;;;23.90;77.00;;;;;;4996079;28;20644;-74
2021/09/06 09:33:11;;;;;;;0.20;0.20;;;24.20;75.30;;;;;;5013586;28;20038;-73
2021/09/06 09:35:37;;;;;;;0.13;0.13;;;24.30;74.70;;;;;;5017280;28;20021;-74
2021/09/06 09:38:06;;;;;;;0.17;0.17;;;24.50;72.10;;;;;;4995427;28;20033;-73
2021/09/06 09:40:43;;;;;;;9.63;2.00;;;24.80;71.80;;;;;;5013890;28;20025;-74
2021/09/06 09:43:09;;;;;;;0.75;0.25;;;25.10;71.30;;;;;;5012997;28;20105;-73
2021/09/06 09:45:36;;;;;;;1.17;0.98;;;25.30;70.50;;;;;;4995287;28;20030;-74
2021/09/06 09:48:04;;;;;;;2.70;1.85;;;25.20;70.20;;;;;;5012977;28;20393;-73
2021/09/06 09:50:33;;;;;;;3.42;1.27;;;25.10;68.60;;;;;;4995684;28;20026;-74
2021/09/06 09:52:59;;;;;;;0.30;0.30;;;25.00;70.00;;;;;;5013038;28;20177;-73
2021/09/06 09:55:27;;;;;;;2.03;1.33;;;25.20;69.60;;;;;;5013021;28;20109;-73
2021/09/06 09:57:53;;;;;;;1.85;1.75;;;25.50;65.40;;;;;;5012861;28;20493;-73
2021/09/06 10:00:20;;;;;;;8.68;2.08;;;25.10;66.10;;;;;;5012993;28;20105;-73
2021/09/06 10:02:57;;;;;;;2.95;1.27;;;24.70;66.50;;;;;;5012909;28;20091;-73
2021/09/06 10:05:32;;;;;;;0.25;0.25;;;25.40;67.30;;;;;;4978829;28;20060;-74
2021/09/06 10:07:59;;;;;;;0.00;0.00;;;25.90;65.30;;;;;;5016504;28;20018;-73
2021/09/06 10:10:25;;;;;;;2.90;2.42;;;26.30;63.60;;;;;;5013287;28;20026;-73
2021/09/06 10:13:05;;;;;;;0.08;0.08;;;26.40;62.90;;;;;;4999964;28;20076;-74
2021/09/06 10:15:34;;;;;;;0.40;0.40;;;26.30;63.80;;;;;;5012800;28;20060;-73
2021/09/06 10:18:13;;;;;;;0.60;0.60;;;26.60;60.80;;;;;;5012126;28;20022;-73
2021/09/06 10:20:38;;;;;;;0.10;0.10;;;26.20;61.90;;;;;;5012535;28;20021;-73
2021/09/06 10:23:07;;;;;;;0.00;0.00;;;26.40;62.80;;;;;;5014447;28;20561;-73
2021/09/06 10:25:34;;;;;;;3.00;1.13;;;27.00;61.00;;;;;;5012436;28;20053;-73
2021/09/06 10:28:04;;;;;;;0.17;0.17;;;27.40;60.70;;;;;;4998501;28;20489;-74
2021/09/06 10:30:38;;;;;;;0.63;0.63;;;27.20;60.50;;;;;;4994727;28;20080;-74
2021/09/06 10:33:06;;;;;;;3.63;1.00;;;27.20;59.80;;;;;;5012581;28;20109;-74
2021/09/06 10:35:32;;;;;;;1.48;1.23;;;27.20;58.70;;;;;;4995039;28;20049;-74
2021/09/06 10:37:59;;;;;;;0.70;0.70;;;26.90;60.30;;;;;;5012716;28;20025;-74
2021/09/06 10:40:27;;;;;;;0.13;0.13;;;27.10;60.20;;;;;;5012564;28;20459;-74
2021/09/06 10:42:53;;;;;;;0.82;0.82;;;27.30;60.40;;;;;;5026396;28;20075;-74
2021/09/06 10:45:21;;;;;;;0.38;0.38;;;27.90;59.20;;;;;;5030162;28;20021;-72
2021/09/06 10:48:00;;;;;;;1.10;1.00;;;28.40;57.60;;;;;;5007435;28;20025;-71
2021/09/06 10:50:27;;;;;;;1.90;1.40;;;28.00;56.20;;;;;;5007604;28;20049;-71
2021/09/06 10:52:53;;;;;;;1.50;1.40;;;28.20;55.50;;;;;;5013960;28;20516;-71
2021/09/06 10:55:20;;;;;;;3.67;1.13;;;28.40;55.90;;;;;;5011485;28;20046;-71
2021/09/06 10:57:47;;;;;;;0.30;0.22;;;28.50;55.50;;;;;;5012486;28;20030;-71
2021/09/06 11:00:17;;;;;;;2.67;1.92;;;27.60;57.70;;;;;;5004747;28;20411;-71
2021/09/06 11:02:43;;;;;;;4.13;0.63;;;27.30;58.30;;;;;;4993853;28;20437;-73
2021/09/06 11:05:17;;;;;;;0.00;0.00;;;27.70;58.90;;;;;;4993749;28;20113;-73
2021/09/06 11:07:43;;;;;;;1.17;0.85;;;28.10;58.40;;;;;;4994682;28;20482;-73
2021/09/06 11:10:10;;;;;;;0.43;0.43;;;28.30;58.40;;;;;;4993408;28;20029;-71
2021/09/06 11:12:39;;;;;;;0.00;0.00;;;28.60;57.20;;;;;;5013672;28;20030;-71
2021/09/06 11:15:06;;;;;;;7.15;3.40;;;28.80;56.70;;;;;;5011531;28;20131;-71
2021/09/06 11:17:32;;;;;;;0.00;0.00;;;28.40;56.00;;;;;;5011271;28;20033;-71
2021/09/06 11:19:58;;;;;;;1.27;1.17;;;28.20;57.30;;;;;;5011345;28;20021;-71
2021/09/06 11:22:29;;;;;;;0.10;0.10;;;28.40;56.50;;;;;;4994816;28;20359;-71
2021/09/06 11:25:00;;;;;;;1.17;1.05;;;28.40;56.70;;;;;;5011341;28;20422;-71
2021/09/06 11:27:32;;;;;;;0.15;0.15;;;28.30;56.70;;;;;;5013669;28;20087;-71
2021/09/06 11:29:59;;;;;;;0.13;0.13;;;28.60;56.00;;;;;;4993917;28;20640;-71
2021/09/06 11:32:26;;;;;;;1.60;0.60;;;28.30;55.50;;;;;;5014815;28;20057;-71
2021/09/06 11:35:07;;;;;;;1.25;0.75;;;28.70;54.70;;;;;;5011185;28;20033;-71
2021/09/06 11:37:33;;;;;;;2.40;1.67;;;28.40;55.30;;;;;;5011787;28;20358;-71
2021/09/06 11:40:00;;;;;;;0.00;0.00;;;28.60;54.70;;;;;;5011223;28;20034;-71
2021/09/06 11:42:27;;;;;;;0.30;0.25;;;28.20;55.60;;;;;;4977450;28;20481;-71
2021/09/06 11:44:57;;;;;;;0.00;0.00;;;28.60;55.70;;;;;;5011270;28;20429;-71
2021/09/06 11:47:23;;;;;;;0.30;0.30;;;28.30;56.50;;;;;;4993464;28;20034;-71
2021/09/06 11:49:58;;;;;;;1.42;0.85;;;28.40;56.10;;;;;;4994860;28;20125;-71
2021/09/06 11:52:33;;;;;;;0.03;0.03;;;28.80;54.50;;;;;;5011292;28;20029;-71
2021/09/06 11:54:59;;;;;;;0.47;0.47;;;29.10;51.80;;;;;;4977242;28;20026;-71
2021/09/06 11:57:30;;;;;;;0.00;0.00;;;29.20;52.40;;;;;;4994478;28;20068;-71
2021/09/06 11:59:56;;;;;;;0.00;0.00;;;29.40;53.20;;;;;;5011017;28;20026;-71
2021/09/06 12:02:23;;;;;;;0.00;0.00;;;29.10;52.30;;;;;;4993363;28;20033;-71
2021/09/06 12:04:49;;;;;;;0.32;0.32;;;29.00;52.70;;;;;;5013790;28;20049;-72
2021/09/06 12:07:19;;;;;;;0.85;0.85;;;28.90;52.50;;;;;;4994694;28;20116;-72
2021/09/06 12:09:46;;;;;;;1.58;0.95;;;28.40;53.60;;;;;;5011190;28;20536;-73
2021/09/06 12:12:21;;;;;;;1.05;0.75;;;28.10;54.30;;;;;;5014838;28;20028;-72
2021/09/06 12:14:48;;;;;;;0.15;0.15;;;27.80;54.20;;;;;;4982224;28;20034;-74
2021/09/06 12:17:15;;;;;;;1.60;1.40;;;27.50;55.10;;;;;;5025081;28;20018;-74
2021/09/06 12:19:43;;;;;;;0.60;0.30;;;27.50;53.10;;;;;;5015191;28;20022;-74
2021/09/06 12:22:27;;;;;;;0.43;0.30;;;27.10;56.60;;;;;;5014769;28;20162;-74
2021/09/06 12:25:04;;;;;;;0.82;0.70;;;27.00;55.60;;;;;;5032890;28;20449;-74
2021/09/06 12:27:34;;;;;;;2.60;1.25;;;26.90;56.10;;;;;;5001429;28;20129;-74
2021/09/06 12:30:00;;;;;;;1.67;0.95;;;26.30;56.80;;;;;;5020570;28;20030;-74
2021/09/06 12:32:29;;;;;;;5.32;0.68;;;26.40;57.50;;;;;;4997220;28;20064;-74
2021/09/06 12:34:55;;;;;;;0.28;0.28;;;26.50;55.80;;;;;;5014987;28;20423;-75
2021/09/06 12:37:22;;;;;;;0.28;0.28;;;26.50;54.30;;;;;;5013248;28;20025;-72
2021/09/06 12:39:48;;;;;;;3.35;1.17;;;26.40;55.70;;;;;;5012574;28;20026;-72
2021/09/06 12:42:14;;;;;;;0.00;0.00;;;26.00;57.00;;;;;;4995412;28;20363;-74
2021/09/06 12:44:39;;;;;;;0.03;0.03;;;26.20;57.60;;;;;;4996412;28;20411;-74